createdAt,value
2023-02-11T00:02:13.396Z,20.60
2023-02-11T00:04:39.769Z,17.52
2023-02-11T00:07:06.072Z,14.98
2023-02-11T00:09:32.412Z,24.30
2023-02-11T00:11:58.788Z,15.47
2023-02-11T00:14:25.219Z,30.58
2023-02-11T00:16:51.609Z,20.58
2023-02-11T00:19:18.022Z,22.67
2023-02-11T00:21:44.383Z,23.70
2023-02-11T00:24:10.769Z,24.03
2023-02-11T00:26:37.080Z,22.23
2023-02-11T00:29:04.799Z,20.02
2023-02-11T00:31:31.568Z,23.73
2023-02-11T00:33:57.983Z,16.92
2023-02-11T00:36:27.234Z,19.40
2023-02-11T00:38:54.526Z,17.30
2023-02-11T00:41:21.977Z,20.42
2023-02-11T00:43:48.671Z,12.07
2023-02-11T00:46:15.726Z,22.77
2023-02-11T00:48:42.578Z,18.77
2023-02-11T00:51:09.149Z,18.40
2023-02-11T00:53:36.107Z,18.05
2023-02-11T00:56:02.609Z,28.63
2023-02-11T00:58:29.498Z,31.63
2023-02-11T01:00:56.796Z,19.60
2023-02-11T01:03:23.236Z,17.25
2023-02-11T01:05:49.854Z,25.38
2023-02-11T01:08:16.603Z,27.95
2023-02-11T01:10:42.965Z,17.35
2023-02-11T01:13:09.765Z,22.63
2023-02-11T01:15:36.247Z,19.30
2023-02-11T01:18:04.816Z,22.77
2023-02-11T01:20:31.194Z,21.70
2023-02-11T01:22:57.512Z,17.88
2023-02-11T01:25:23.804Z,23.23
2023-02-11T01:27:50.136Z,19.42
2023-02-11T01:30:16.434Z,18.13
2023-02-11T01:32:42.790Z,21.83
2023-02-11T01:35:09.176Z,23.52
2023-02-11T01:37:35.945Z,20.97
2023-02-11T01:40:05.144Z,24.35
2023-02-11T01:42:33.084Z,24.10
2023-02-11T01:45:21.512Z,28.90
2023-02-11T01:47:47.887Z,17.88
2023-02-11T01:50:14.883Z,20.77
2023-02-11T01:52:41.910Z,25.88
2023-02-11T01:55:12.589Z,16.15
2023-02-11T01:57:42.903Z,21.48
2023-02-11T02:00:23.303Z,22.55
2023-02-11T02:03:11.337Z,23.93
2023-02-11T02:06:00.856Z,25.02
2023-02-11T02:08:35.107Z,28.42
2023-02-11T02:11:01.785Z,20.38
2023-02-11T02:13:32.103Z,28.50
2023-02-11T02:16:06.666Z,25.03
2023-02-11T02:18:39.864Z,22.58
2023-02-11T02:21:38.566Z,32.97
2023-02-11T02:24:17.976Z,25.65
2023-02-11T02:27:09.008Z,23.10
2023-02-11T02:30:02.397Z,15.10
2023-02-11T02:33:13.280Z,21.25
2023-02-11T02:36:05.452Z,23.60
2023-02-11T02:38:34.369Z,28.25
2023-02-11T02:41:13.896Z,20.45
2023-02-11T02:43:44.322Z,22.07
2023-02-11T02:46:13.576Z,24.33
2023-02-11T02:48:39.927Z,21.60
2023-02-11T02:51:25.300Z,19.02
2023-02-11T02:54:40.039Z,20.83
2023-02-11T02:57:40.273Z,19.77
2023-02-11T03:00:24.866Z,15.32
2023-02-11T03:03:17.383Z,22.60
2023-02-11T03:05:54.435Z,25.83
2023-02-11T03:08:53.080Z,29.08
2023-02-11T03:11:21.761Z,21.53
2023-02-11T03:13:49.585Z,25.50
2023-02-11T03:16:22.888Z,21.65
2023-02-11T03:19:18.269Z,19.52
2023-02-11T03:21:46.726Z,16.83
2023-02-11T03:24:34.812Z,18.30
2023-02-11T03:27:12.540Z,16.13
2023-02-11T03:30:05.183Z,15.25
2023-02-11T03:32:42.035Z,20.33
2023-02-11T03:35:31.744Z,24.80
2023-02-11T03:38:04.412Z,24.40
2023-02-11T03:40:38.013Z,22.25
2023-02-11T03:43:14.378Z,17.40
2023-02-11T03:45:41.041Z,15.90
2023-02-11T03:48:14.235Z,21.85
2023-02-11T03:50:42.137Z,24.07
2023-02-11T03:53:09.945Z,23.13
2023-02-11T03:55:39.790Z,22.77
2023-02-11T03:58:07.277Z,21.65
2023-02-11T04:00:39.552Z,20.35
2023-02-11T04:03:06.673Z,25.80
2023-02-11T04:05:33.269Z,14.45
2023-02-11T04:07:59.620Z,25.00
2023-02-11T04:10:26.002Z,20.52
2023-02-11T04:12:52.277Z,28.35
2023-02-11T04:15:19.017Z,25.07
2023-02-11T04:17:45.425Z,19.67
2023-02-11T04:20:12.493Z,21.67
2023-02-11T04:22:38.854Z,28.92
2023-02-11T04:25:06.224Z,23.65
2023-02-11T04:27:32.676Z,18.20
2023-02-11T04:29:59.042Z,14.73
2023-02-11T04:32:25.440Z,23.27
2023-02-11T04:34:51.757Z,23.92
2023-02-11T04:37:18.139Z,25.02
2023-02-11T04:39:44.443Z,33.73
2023-02-11T04:42:10.809Z,30.38
2023-02-11T04:44:37.116Z,27.38
2023-02-11T04:47:03.945Z,24.27
2023-02-11T04:49:30.694Z,25.40
2023-02-11T04:51:57.162Z,27.07
2023-02-11T04:54:23.519Z,24.10
2023-02-11T04:56:49.884Z,27.25
2023-02-11T04:59:16.647Z,20.63
2023-02-11T05:01:42.976Z,32.72
2023-02-11T05:04:09.381Z,27.23
2023-02-11T05:06:37.681Z,23.60
2023-02-11T05:09:03.976Z,27.80
2023-02-11T05:11:30.326Z,25.00
2023-02-11T05:13:56.825Z,31.10
2023-02-11T05:16:23.378Z,27.57
2023-02-11T05:18:52.152Z,27.35
2023-02-11T05:21:19.395Z,28.85
2023-02-11T05:23:45.938Z,24.00
2023-02-11T05:26:13.683Z,31.58
2023-02-11T05:28:40.346Z,30.43
2023-02-11T05:31:07.103Z,33.15
2023-02-11T05:33:33.757Z,24.10
2023-02-11T05:36:01.840Z,36.42
2023-02-11T05:38:28.127Z,31.42
2023-02-11T05:40:55.948Z,28.40
2023-02-11T05:43:22.391Z,35.55
2023-02-11T05:45:48.961Z,38.53
2023-02-11T05:48:15.515Z,28.05
2023-02-11T05:50:43.281Z,28.38
2023-02-11T05:53:09.678Z,31.30
2023-02-11T05:55:36.159Z,29.00
2023-02-11T05:58:02.475Z,25.52
2023-02-11T06:00:28.841Z,34.30
2023-02-11T06:02:55.295Z,33.17
2023-02-11T06:05:21.780Z,31.57
2023-02-11T06:07:48.148Z,28.70
2023-02-11T06:10:14.576Z,34.25
2023-02-11T06:12:41.186Z,31.73
2023-02-11T06:15:07.931Z,31.77
2023-02-11T06:17:34.326Z,30.97
2023-02-11T06:20:00.937Z,32.13
2023-02-11T06:22:27.468Z,32.15
2023-02-11T06:25:01.404Z,31.23
2023-02-11T06:27:29.152Z,32.05
2023-02-11T06:29:55.447Z,30.43
2023-02-11T06:32:42.183Z,39.90
2023-02-11T06:35:10.759Z,41.15
2023-02-11T06:37:38.285Z,33.72
2023-02-11T06:40:04.921Z,33.97
2023-02-11T06:42:31.344Z,35.00
2023-02-11T06:44:57.740Z,35.42
2023-02-11T06:47:24.043Z,39.20
2023-02-11T06:49:50.466Z,38.70
2023-02-11T06:52:16.821Z,42.95
2023-02-11T06:54:43.138Z,37.47
2023-02-11T06:57:09.515Z,34.55
2023-02-11T06:59:36.094Z,39.60
2023-02-11T07:02:02.501Z,40.95
2023-02-11T07:04:28.911Z,44.88
2023-02-11T07:06:55.397Z,40.93
2023-02-11T07:09:21.755Z,43.85
2023-02-11T07:11:48.108Z,36.88
2023-02-11T07:14:14.620Z,42.65
2023-02-11T07:16:41.038Z,41.08
2023-02-11T07:19:07.535Z,42.03
2023-02-11T07:21:33.875Z,44.70
2023-02-11T07:24:00.310Z,49.20
2023-02-11T07:26:28.501Z,40.33
2023-02-11T07:28:55.079Z,49.10
2023-02-11T07:31:25.202Z,46.80
2023-02-11T07:33:53.788Z,40.25
2023-02-11T07:36:21.148Z,48.03
2023-02-11T07:38:47.588Z,57.65
2023-02-11T07:41:17.077Z,45.78
2023-02-11T07:43:44.144Z,53.87
2023-02-11T07:46:17.014Z,50.72
2023-02-11T07:48:43.482Z,48.38
2023-02-11T07:51:13.788Z,57.05
2023-02-11T07:53:40.585Z,53.83
2023-02-11T07:56:09.234Z,50.40
2023-02-11T07:58:36.239Z,56.85
2023-02-11T08:01:08.157Z,53.83
2023-02-11T08:03:36.097Z,54.80
2023-02-11T08:06:08.136Z,52.38
2023-02-11T08:08:34.833Z,58.50
2023-02-11T08:11:09.524Z,60.15
2023-02-11T08:13:36.502Z,53.92
2023-02-11T08:16:04.065Z,56.67
2023-02-11T08:18:31.735Z,67.57
2023-02-11T08:21:04.958Z,51.40
2023-02-11T08:23:31.321Z,53.53
2023-02-11T08:26:05.646Z,61.72
2023-02-11T08:28:35.037Z,57.58
2023-02-11T08:31:13.924Z,54.70
2023-02-11T08:33:40.414Z,52.83
2023-02-11T08:36:19.515Z,57.28
2023-02-11T08:38:46.715Z,58.28
2023-02-11T08:41:14.037Z,58.70
2023-02-11T08:43:41.964Z,69.57
2023-02-11T08:46:09.891Z,61.80
2023-02-11T08:48:36.355Z,59.20
2023-02-11T08:51:07.365Z,60.28
2023-02-11T08:53:34.322Z,55.20
2023-02-11T08:56:00.750Z,60.97
2023-02-11T08:58:27.283Z,60.60
2023-02-11T09:00:54.105Z,61.65
2023-02-11T09:03:20.670Z,59.78
2023-02-11T09:05:49.088Z,60.90
2023-02-11T09:08:16.891Z,61.78
2023-02-11T09:10:43.411Z,61.53
2023-02-11T09:13:09.986Z,63.22
2023-02-11T09:15:36.621Z,63.88
2023-02-11T09:18:04.747Z,65.80
2023-02-11T09:20:31.460Z,61.30
2023-02-11T09:22:59.394Z,61.87
2023-02-11T09:25:26.055Z,59.20
2023-02-11T09:27:52.451Z,70.45
2023-02-11T09:30:18.992Z,58.00
2023-02-11T09:32:45.316Z,66.30
2023-02-11T09:35:11.711Z,70.17
2023-02-11T09:37:38.084Z,66.82
2023-02-11T09:40:05.080Z,70.40
2023-02-11T09:42:43.699Z,71.78
2023-02-11T09:45:15.982Z,52.90
2023-02-11T09:47:56.656Z,62.13
2023-02-11T09:50:29.579Z,58.75
2023-02-11T09:52:58.477Z,67.72
2023-02-11T09:55:28.584Z,63.03
2023-02-11T09:57:56.939Z,73.65
2023-02-11T10:00:29.065Z,70.80
2023-02-11T10:03:04.255Z,61.67
2023-02-11T10:05:49.101Z,62.70
2023-02-11T10:08:18.481Z,65.93
2023-02-11T10:11:30.591Z,68.05
2023-02-11T10:14:15.909Z,57.20
2023-02-11T10:16:53.751Z,65.10
2023-02-11T10:19:49.314Z,57.65
2023-02-11T10:22:24.181Z,65.15
2023-02-11T10:24:54.716Z,66.90
2023-02-11T10:27:28.374Z,71.53
2023-02-11T10:30:06.282Z,73.22
2023-02-11T10:32:40.065Z,70.60
2023-02-11T10:35:15.318Z,70.43
2023-02-11T10:37:44.247Z,77.45
2023-02-11T10:40:16.828Z,72.50
2023-02-11T10:42:48.131Z,60.83
2023-02-11T10:45:25.002Z,65.78
2023-02-11T10:47:51.448Z,63.60
2023-02-11T10:50:21.767Z,71.15
2023-02-11T10:52:48.573Z,58.33
2023-02-11T10:55:21.504Z,58.30
2023-02-11T10:58:00.544Z,51.33
2023-02-11T11:00:38.266Z,45.58
2023-02-11T11:03:16.864Z,49.47
2023-02-11T11:05:58.741Z,44.27
2023-02-11T11:08:45.730Z,49.38
2023-02-11T11:11:23.565Z,40.55
2023-02-11T11:13:52.622Z,39.95
2023-02-11T11:16:32.168Z,36.72
2023-02-11T11:19:07.557Z,37.60
2023-02-11T11:21:41.108Z,35.25
2023-02-11T11:24:18.123Z,40.35
2023-02-11T11:26:54.007Z,40.20
2023-02-11T11:29:30.749Z,40.38
2023-02-11T11:32:11.360Z,34.30
2023-02-11T11:34:41.435Z,36.70
2023-02-11T11:37:24.485Z,33.43
2023-02-11T11:40:01.423Z,41.53
2023-02-11T11:42:39.094Z,32.53
2023-02-11T11:45:17.630Z,34.03
2023-02-11T11:48:07.192Z,35.03
2023-02-11T11:50:45.794Z,39.08
2023-02-11T11:53:40.665Z,29.15
2023-02-11T11:56:14.030Z,40.00
2023-02-11T11:58:40.571Z,39.03
2023-02-11T12:01:36.856Z,29.55
2023-02-11T12:04:08.427Z,31.13
2023-02-11T12:06:56.679Z,28.98
2023-02-11T12:09:38.826Z,23.55
2023-02-11T12:12:09.101Z,24.03
2023-02-11T12:14:38.593Z,26.77
2023-02-11T12:17:26.606Z,25.75
2023-02-11T12:20:10.923Z,24.17
2023-02-11T12:22:55.681Z,29.52
2023-02-11T12:25:28.468Z,25.00
2023-02-11T12:28:03.736Z,21.95
2023-02-11T12:30:47.383Z,20.88
2023-02-11T12:33:25.266Z,24.10
2023-02-11T12:36:01.929Z,24.45
2023-02-11T12:38:49.386Z,19.90
2023-02-11T12:41:36.396Z,25.20
2023-02-11T12:44:03.179Z,21.00
2023-02-11T12:47:06.366Z,21.50
2023-02-11T12:49:41.837Z,21.27
2023-02-11T12:52:52.005Z,25.20
2023-02-11T12:55:27.881Z,21.30
2023-02-11T12:57:57.776Z,22.60
2023-02-11T13:00:31.229Z,22.23
2023-02-11T13:03:10.919Z,18.52
2023-02-11T13:05:42.902Z,22.53
2023-02-11T13:08:12.163Z,18.20
2023-02-11T13:10:43.092Z,23.30
2023-02-11T13:13:30.523Z,17.23
2023-02-11T13:15:59.613Z,22.83
2023-02-11T13:18:55.438Z,17.27
2023-02-11T13:21:33.577Z,14.18
2023-02-11T13:24:09.543Z,15.68
2023-02-11T13:26:51.040Z,13.90
2023-02-11T13:29:40.539Z,16.02
2023-02-11T13:32:14.578Z,15.17
2023-02-11T13:34:43.676Z,17.60
2023-02-11T13:37:37.129Z,16.83
2023-02-11T13:40:07.402Z,13.48
2023-02-11T13:42:54.513Z,17.92
2023-02-11T13:45:43.078Z,16.07
2023-02-11T13:48:29.212Z,17.27
2023-02-11T13:51:01.410Z,14.55
2023-02-11T13:53:29.335Z,15.52
2023-02-11T13:56:12.778Z,12.75
2023-02-11T13:58:50.399Z,18.47
2023-02-11T14:01:38.462Z,19.25
2023-02-11T14:04:22.377Z,19.15
2023-02-11T14:07:23.682Z,17.00
2023-02-11T14:09:50.143Z,17.65
2023-02-11T14:12:24.203Z,17.57
2023-02-11T14:15:04.802Z,16.02
2023-02-11T14:17:34.242Z,13.57
2023-02-11T14:20:02.764Z,14.30
2023-02-11T14:22:40.810Z,14.77
2023-02-11T14:25:20.122Z,19.33
2023-02-11T14:27:53.824Z,13.23
2023-02-11T14:30:43.666Z,17.05
2023-02-11T14:33:47.735Z,15.85
2023-02-11T14:36:26.859Z,14.27
2023-02-11T14:39:22.444Z,15.20
2023-02-11T14:41:49.463Z,16.83
2023-02-11T14:44:28.187Z,15.90
2023-02-11T14:46:55.532Z,14.95
2023-02-11T14:49:31.100Z,14.65
2023-02-11T14:52:07.278Z,12.47
2023-02-11T14:54:34.919Z,18.73
2023-02-11T14:57:16.099Z,17.38
2023-02-11T15:00:03.820Z,13.98
2023-02-11T15:02:35.153Z,13.68
2023-02-11T15:05:24.420Z,11.33
2023-02-11T15:07:57.480Z,14.77
2023-02-11T15:10:30.417Z,15.82
2023-02-11T15:12:58.382Z,12.05
2023-02-11T15:15:26.171Z,12.48
2023-02-11T15:17:53.371Z,12.27
2023-02-11T15:20:24.378Z,11.27
2023-02-11T15:22:56.958Z,11.35
2023-02-11T15:25:23.501Z,15.57
2023-02-11T15:27:52.900Z,15.13
2023-02-11T15:30:21.992Z,12.23
2023-02-11T15:32:59.230Z,13.93
2023-02-11T15:35:43.479Z,11.10
2023-02-11T15:38:13.131Z,17.15
2023-02-11T15:40:39.593Z,13.38
2023-02-11T15:43:08.957Z,11.10
2023-02-11T15:45:37.379Z,10.93
2023-02-11T15:48:16.514Z,14.00
2023-02-11T15:50:50.676Z,12.02
2023-02-11T15:53:33.385Z,10.90
2023-02-11T15:56:22.602Z,11.97
2023-02-11T15:58:50.026Z,12.60
2023-02-11T16:01:16.759Z,10.75
2023-02-11T16:03:43.981Z,9.70
2023-02-11T16:06:34.635Z,10.88
2023-02-11T16:09:08.696Z,10.97
2023-02-11T16:11:52.772Z,13.68
2023-02-11T16:14:28.096Z,16.38
2023-02-11T16:16:58.869Z,17.10
2023-02-11T16:19:26.833Z,13.07
2023-02-11T16:21:55.902Z,11.00
2023-02-11T16:24:26.947Z,14.90
2023-02-11T16:26:57.568Z,12.50
2023-02-11T16:29:30.303Z,16.88
2023-02-11T16:32:10.192Z,14.70
2023-02-11T16:34:36.965Z,12.93
2023-02-11T16:37:05.559Z,11.43
2023-02-11T16:39:32.212Z,10.48
2023-02-11T16:41:59.192Z,16.10
2023-02-11T16:44:25.847Z,12.82
2023-02-11T16:46:53.721Z,14.17
2023-02-11T16:49:27.650Z,17.38
2023-02-11T16:51:55.799Z,13.55
2023-02-11T16:54:23.202Z,12.48
2023-02-11T16:56:50.168Z,15.73
2023-02-11T16:59:16.585Z,10.80
2023-02-11T17:01:44.723Z,15.27
2023-02-11T17:04:19.741Z,13.43
2023-02-11T17:06:46.219Z,12.15
2023-02-11T17:09:17.709Z,10.82
2023-02-11T17:11:44.122Z,14.00
2023-02-11T17:14:10.525Z,14.48
2023-02-11T17:16:36.912Z,13.35
2023-02-11T17:19:03.344Z,12.80
2023-02-11T17:21:30.262Z,14.70
2023-02-11T17:23:57.377Z,14.03
2023-02-11T17:26:23.971Z,12.00
2023-02-11T17:28:50.521Z,14.25
2023-02-11T17:31:17.129Z,17.00
2023-02-11T17:33:43.652Z,14.38
2023-02-11T17:36:10.758Z,16.53
2023-02-11T17:38:37.940Z,18.42
2023-02-11T17:41:04.964Z,15.93
2023-02-11T17:43:31.744Z,13.85
2023-02-11T17:45:58.276Z,19.80
2023-02-11T17:48:25.043Z,15.00
2023-02-11T17:50:51.449Z,16.20
2023-02-11T17:53:17.780Z,14.90
2023-02-11T17:55:44.163Z,18.40
2023-02-11T17:58:10.537Z,18.80
2023-02-11T18:00:36.915Z,14.37
2023-02-11T18:03:03.390Z,13.82
2023-02-11T18:05:36.663Z,12.68
2023-02-11T18:08:05.208Z,10.70
2023-02-11T18:10:31.684Z,10.35
2023-02-11T18:12:58.045Z,15.37
2023-02-11T18:15:24.336Z,14.63
2023-02-11T18:17:50.672Z,12.52
2023-02-11T18:20:17.311Z,14.38
2023-02-11T18:22:44.092Z,12.52
2023-02-11T18:25:14.069Z,13.73
2023-02-11T18:27:40.779Z,14.10
2023-02-11T18:30:08.069Z,13.40
2023-02-11T18:32:34.404Z,11.10
2023-02-11T18:35:00.764Z,15.73
2023-02-11T18:37:27.263Z,11.70
2023-02-11T18:39:53.748Z,15.38
2023-02-11T18:42:20.157Z,16.13
2023-02-11T18:44:46.708Z,19.17
2023-02-11T18:47:13.146Z,14.23
2023-02-11T18:49:39.572Z,17.53
2023-02-11T18:52:06.056Z,16.55
2023-02-11T18:54:32.427Z,13.55
2023-02-11T18:56:58.785Z,12.45
2023-02-11T18:59:25.247Z,18.02
2023-02-11T19:01:51.567Z,14.57
2023-02-11T19:04:18.252Z,15.63
2023-02-11T19:06:48.311Z,16.88
2023-02-11T19:09:17.266Z,15.25
2023-02-11T19:11:44.205Z,15.13
2023-02-11T19:14:11.573Z,16.20
2023-02-11T19:16:39.350Z,18.15
2023-02-11T19:19:06.200Z,16.92
2023-02-11T19:21:33.676Z,19.80
2023-02-11T19:24:00.539Z,15.45
2023-02-11T19:26:27.871Z,15.23
2023-02-11T19:28:54.694Z,18.85
2023-02-11T19:31:21.848Z,14.88
2023-02-11T19:33:48.199Z,14.48
2023-02-11T19:36:14.546Z,17.15
2023-02-11T19:38:40.872Z,18.63
2023-02-11T19:41:07.257Z,17.88
2023-02-11T19:43:33.665Z,16.02
2023-02-11T19:46:04.634Z,18.33
2023-02-11T19:48:31.068Z,17.33
2023-02-11T19:50:57.588Z,16.17
2023-02-11T19:53:24.258Z,15.20
2023-02-11T19:55:50.865Z,15.48
2023-02-11T19:58:17.420Z,16.38
2023-02-11T20:00:43.816Z,15.88
2023-02-11T20:03:10.284Z,16.37
2023-02-11T20:05:39.715Z,15.63
2023-02-11T20:08:06.079Z,17.75
2023-02-11T20:10:32.605Z,15.63
2023-02-11T20:12:58.905Z,16.45
2023-02-11T20:15:25.259Z,13.60
2023-02-11T20:17:51.567Z,16.08
2023-02-11T20:20:18.346Z,25.23
2023-02-11T20:22:44.716Z,29.77
2023-02-11T20:25:11.146Z,25.35
2023-02-11T20:27:37.734Z,22.03
2023-02-11T20:30:05.223Z,14.70
2023-02-11T20:32:32.778Z,17.55
2023-02-11T20:34:59.303Z,17.95
2023-02-11T20:37:25.668Z,17.05
2023-02-11T20:39:52.085Z,15.30
2023-02-11T20:42:18.496Z,20.75
2023-02-11T20:44:44.939Z,18.70
2023-02-11T20:47:12.635Z,16.50
2023-02-11T20:49:39.012Z,17.73
2023-02-11T20:52:05.542Z,16.73
2023-02-11T20:54:31.896Z,16.70
2023-02-11T20:56:58.266Z,21.85
2023-02-11T20:59:25.034Z,22.02
2023-02-11T21:01:53.655Z,25.85
2023-02-11T21:04:26.235Z,21.80
2023-02-11T21:06:56.538Z,18.52
2023-02-11T21:09:25.867Z,20.55
2023-02-11T21:11:53.330Z,20.63
2023-02-11T21:14:21.284Z,17.58
2023-02-11T21:16:48.647Z,18.17
2023-02-11T21:19:16.155Z,19.45
2023-02-11T21:21:43.105Z,17.88
2023-02-11T21:24:10.316Z,18.75
2023-02-11T21:26:37.489Z,19.52
2023-02-11T21:29:06.518Z,18.37
2023-02-11T21:31:34.212Z,15.90
2023-02-11T21:34:00.852Z,19.38
2023-02-11T21:36:28.582Z,15.48
2023-02-11T21:38:54.864Z,15.55
2023-02-11T21:41:22.139Z,18.67
2023-02-11T21:43:50.008Z,20.77
2023-02-11T21:46:17.705Z,21.98
2023-02-11T21:48:44.173Z,17.63
2023-02-11T21:51:16.580Z,21.60
2023-02-11T21:53:43.045Z,20.80
2023-02-11T21:56:15.727Z,16.75
2023-02-11T21:58:42.763Z,19.25
2023-02-11T22:01:17.362Z,16.52
2023-02-11T22:03:45.173Z,15.70
2023-02-11T22:06:15.043Z,17.40
2023-02-11T22:08:41.576Z,17.13
2023-02-11T22:11:10.847Z,18.30
2023-02-11T22:13:37.238Z,18.90
2023-02-11T22:16:06.701Z,17.25
2023-02-11T22:18:33.318Z,17.47
2023-02-11T22:21:09.467Z,20.95
2023-02-11T22:23:36.965Z,16.13
2023-02-11T22:26:07.580Z,19.05
2023-02-11T22:28:34.581Z,21.27
2023-02-11T22:31:01.101Z,22.30
2023-02-11T22:33:28.103Z,20.23
2023-02-11T22:35:59.364Z,19.83
2023-02-11T22:38:26.088Z,20.42
2023-02-11T22:40:52.478Z,21.58
2023-02-11T22:43:18.835Z,19.77
2023-02-11T22:45:45.179Z,24.50
2023-02-11T22:48:11.816Z,21.60
2023-02-11T22:50:38.115Z,21.73
2023-02-11T22:53:04.461Z,23.85
2023-02-11T22:55:30.895Z,19.20
2023-02-11T22:57:57.249Z,23.25
2023-02-11T23:00:26.087Z,20.95
2023-02-11T23:02:52.419Z,18.50
2023-02-11T23:05:18.908Z,23.55
2023-02-11T23:07:45.243Z,21.50
2023-02-11T23:10:11.676Z,22.35
2023-02-11T23:12:37.976Z,26.05
2023-02-11T23:15:05.216Z,20.67
2023-02-11T23:17:31.742Z,22.30
2023-02-11T23:19:58.104Z,25.13
2023-02-11T23:22:24.521Z,21.58
2023-02-11T23:24:51.436Z,22.52
2023-02-11T23:27:17.817Z,21.73
2023-02-11T23:29:44.204Z,27.60
2023-02-11T23:32:11.318Z,20.23
2023-02-11T23:34:37.738Z,24.55
2023-02-11T23:37:04.189Z,21.73
2023-02-11T23:39:30.621Z,19.38
2023-02-11T23:41:57.008Z,19.65
2023-02-11T23:44:23.301Z,22.17
2023-02-11T23:46:49.683Z,21.30
2023-02-11T23:49:15.977Z,22.63
2023-02-11T23:51:42.471Z,21.98
2023-02-11T23:54:13.247Z,23.20
2023-02-11T23:56:39.774Z,20.40
2023-02-11T23:59:06.174Z,25.20
